Flight OLY10068

  • Submitted By: Stavros Sarikas
  • Departure Airport: Berlin-Tegel International Airport (EDDT)
  • Arrival Airport: CHARLES-DE-GAULLE (LFPG)
  • Aircraft: A320-200 (SX-OAH)
  • Flight Time: 01.37
  • Date Submitted: 15/09/2017
  • Route: BRANE Q201 POVEL UM994 EXOBA UZ717 ABAMI UM170 BAM UZ158 LNO UM170 DINAN
  • Status: Accepted
Flight Details
Gross Revenue:
(138 load / € 115.00 per unit
€ 15, 870.00
Fuel Cost:
(-4086 fuel used @ 0.19 / unit)
(€ -776.34)

Additional Log Information:

View Log

Aircraft Used in flight is Airbus A320 British Airways G-EUUU
08:42 Boarding
08:42 Navigation Lights ON at 130 Feet
08:42 Beacon Lights ON at 130 Feet
08:42 Brakes are On
08:42 In Air Refuel Suspected
08:46 Engine 2 Started
08:48 Engine 1 Started
08:49 Brakes are Released
08:49 Pushing back
08:49 Flaps 3 Selected at 130ft and 0kts
08:50 Taxi Lights ON at 130 Feet
08:51 Landing Lights ON at 130 AGL
08:51 Strobe Lights ON at 130 Feet
08:53 You Took off @ 139 Knots and Flaps at Position 3 With a heading of 261 Degrees
Departure Weather EDDT 150520Z 27013KT 9999 SCT015 BKN057 12/10 Q1008 NOSIG
Departure Coordinates 52.5580408229927/ 13.2885258495693
Takeoff Weight=65649KG Fuel Weight=9802KG
08:53 Landing Gear Up @ 143 Knots and 190 Feet
08:53 Taxi Lights OFF at 220 Feet
08:55 Flaps 2 Selected at 1460ft and 152kts
08:55 Flaps 0 Selected at 1640ft and 193kts
08:57 Above FL100 you need to switch of the landing lights
08:57 Landing Lights OFF at 10130 AGL
09:01 You exceeded maximum bank angle
09:08 TOC Reached
10:09 Below 10000 feet you are not allowed to go over 250 knots
10:09 Landing Lights ON at 9620 AGL
10:14 Flaps 1 Selected at 3250ft and 218kts
10:15 Flaps 3 Selected at 2260ft and 186kts
10:15 Landing Gear Down @ 183 Knots and 2160 Feet
10:16 Flaps 4 Selected at 2020ft and 169kts
10:16 Taxi Lights ON at 1970 Feet
10:16 Flaps 5 Selected at 1920ft and 167kts
10:18 You Landed @ 135 Knots with -344 Vertical Speed With a heading of 265 and with 2.416 G Force
Arrival Weather: LFPG 150700Z 25005KT 9999 FEW010 FEW020TCU SCT040 10/08 Q1014 NOSIG
Arrival Coordinates 48.9944389524041/ 2.59717860060564
Landing Weight=62382KG Fuel Weight=6538KG
10:18 Taxiing to gate
10:18 Paused
10:18 Landing Lights OFF at 400 AGL
10:18 Strobe Lights OFF at 400 Feet
10:18 Flaps 0 Selected at 400ft and 36kts
10:19 Brakes are On
Pirep logged with OA Virtual Tracking 1.0.2.4

Route Map